createdAt,value
2022-08-27T00:00:40.489Z,24.68
2022-08-27T00:01:43.281Z,24.78
2022-08-27T00:02:46.459Z,24.88
2022-08-27T00:03:49.306Z,24.97
2022-08-27T00:04:49.833Z,25.02
2022-08-27T00:05:52.667Z,25.08
2022-08-27T00:06:55.475Z,25.1
2022-08-27T00:07:57.582Z,25.1
2022-08-27T00:09:00.364Z,25.06
2022-08-27T00:10:03.199Z,25.03
2022-08-27T00:11:05.949Z,24.98
2022-08-27T00:12:08.853Z,24.96
2022-08-27T00:13:11.638Z,24.96
2022-08-27T00:14:14.403Z,24.94
2022-08-27T00:15:17.735Z,24.84
2022-08-27T00:16:17.422Z,24.8
2022-08-27T00:17:18.376Z,24.8
2022-08-27T00:18:22.748Z,24.75
2022-08-27T00:19:23.312Z,24.78
2022-08-27T00:20:26.080Z,24.81
2022-08-27T00:21:28.898Z,24.87
2022-08-27T00:22:31.696Z,24.89
2022-08-27T00:23:34.523Z,24.88
2022-08-27T00:24:38.496Z,24.86
2022-08-27T00:25:38.156Z,24.83
2022-08-27T00:26:43.285Z,24.78
2022-08-27T00:27:42.934Z,24.71
2022-08-27T00:28:45.745Z,24.67
2022-08-27T00:29:48.509Z,24.61
2022-08-27T00:30:51.302Z,24.56
2022-08-27T00:31:54.345Z,24.48
2022-08-27T00:32:57.434Z,24.41
2022-08-27T00:34:00.236Z,24.43
2022-08-27T00:35:03.034Z,24.4
2022-08-27T00:36:05.811Z,24.34
2022-08-27T00:37:08.602Z,24.29
2022-08-27T00:38:11.499Z,24.23
2022-08-27T00:39:13.894Z,24.2
2022-08-27T00:40:16.757Z,24.17
2022-08-27T00:41:19.888Z,24.14
2022-08-27T00:42:22.715Z,24.13
2022-08-27T00:43:25.511Z,24.14
2022-08-27T00:44:28.297Z,24.11
2022-08-27T00:45:31.103Z,24.09
2022-08-27T00:46:31.422Z,24.13
2022-08-27T00:47:34.209Z,24.19
2022-08-27T00:48:36.985Z,24.26
2022-08-27T00:49:39.734Z,24.34
2022-08-27T00:50:42.513Z,24.37
2022-08-27T00:51:45.311Z,24.41
2022-08-27T00:52:46.895Z,24.51
2022-08-27T00:53:49.680Z,24.52
2022-08-27T00:54:52.443Z,24.56
2022-08-27T00:55:55.202Z,24.58
2022-08-27T00:56:57.983Z,24.54
2022-08-27T00:58:00.781Z,24.54
2022-08-27T00:59:01.693Z,24.5
2022-08-27T01:00:04.486Z,24.49
2022-08-27T01:01:07.472Z,24.46
2022-08-27T01:02:07.426Z,24.44
2022-08-27T01:03:10.629Z,24.41
2022-08-27T01:04:13.431Z,24.36
2022-08-27T01:05:16.238Z,24.33
2022-08-27T01:06:19.010Z,24.34
2022-08-27T01:07:21.778Z,24.34
2022-08-27T01:08:24.578Z,24.32
2022-08-27T01:09:27.355Z,24.3
2022-08-27T01:10:30.103Z,24.29
2022-08-27T01:11:32.879Z,24.29
2022-08-27T01:12:35.673Z,24.27
2022-08-27T01:13:44.243Z,24.22
2022-08-27T01:14:40.098Z,24.13
2022-08-27T01:15:42.856Z,24.13
2022-08-27T01:16:45.724Z,24.15
2022-08-27T01:17:48.910Z,24.13
2022-08-27T01:18:51.691Z,24.15
2022-08-27T01:19:54.518Z,24.19
2022-08-27T01:20:57.301Z,24.19
2022-08-27T01:22:00.177Z,24.2
2022-08-27T01:23:02.950Z,24.21
2022-08-27T01:24:05.798Z,24.22
2022-08-27T01:25:08.569Z,24.2
2022-08-27T01:26:11.352Z,24.19
2022-08-27T01:27:14.134Z,24.17
2022-08-27T01:28:16.952Z,24.2
2022-08-27T01:29:19.574Z,24.24
2022-08-27T01:30:22.339Z,24.26
2022-08-27T01:31:25.149Z,24.29
2022-08-27T01:32:28.320Z,24.28
2022-08-27T01:33:31.100Z,24.27
2022-08-27T01:34:33.903Z,24.26
2022-08-27T01:35:36.696Z,24.24
2022-08-27T01:36:39.714Z,24.22
2022-08-27T01:37:42.488Z,24.2
2022-08-27T01:38:43.315Z,24.18
2022-08-27T01:39:44.545Z,24.2
2022-08-27T01:40:44.047Z,24.21
2022-08-27T01:41:45.080Z,24.19
2022-08-27T01:42:47.851Z,24.15
2022-08-27T01:43:50.689Z,24.16
2022-08-27T01:44:53.457Z,24.13
2022-08-27T01:45:56.268Z,24.13
2022-08-27T01:46:59.079Z,24.12
2022-08-27T01:48:02.353Z,24.09
2022-08-27T01:49:05.146Z,24.1
2022-08-27T01:50:07.909Z,24.13
2022-08-27T01:51:10.695Z,24.11
2022-08-27T01:52:13.465Z,24.12
2022-08-27T01:53:16.239Z,24.09
2022-08-27T01:54:17.941Z,24.08
2022-08-27T01:55:20.720Z,24.05
2022-08-27T01:56:23.493Z,24.05
2022-08-27T01:57:26.441Z,24.07
2022-08-27T01:58:29.300Z,24.11
2022-08-27T01:59:39.224Z,24.1
2022-08-27T02:00:32.560Z,24.13
2022-08-27T02:01:33.261Z,24.16
2022-08-27T02:02:36.070Z,24.17
2022-08-27T02:03:38.860Z,24.13
2022-08-27T02:04:41.666Z,24.17
2022-08-27T02:05:44.861Z,24.17
2022-08-27T02:06:44.537Z,24.13
2022-08-27T02:07:47.325Z,24.09
2022-08-27T02:08:50.112Z,24.03
2022-08-27T02:09:52.908Z,23.98
2022-08-27T02:10:55.693Z,23.95
2022-08-27T02:11:58.489Z,23.9
2022-08-27T02:13:01.272Z,23.86
2022-08-27T02:14:04.075Z,23.86
2022-08-27T02:15:05.918Z,23.88
2022-08-27T02:16:08.713Z,23.86
2022-08-27T02:17:11.954Z,23.85
2022-08-27T02:18:14.729Z,23.79
2022-08-27T02:19:17.542Z,23.77
2022-08-27T02:20:18.282Z,23.7
2022-08-27T02:21:21.151Z,23.65
2022-08-27T02:22:23.915Z,23.65
2022-08-27T02:23:26.687Z,23.65
2022-08-27T02:24:29.461Z,23.66
2022-08-27T02:25:32.228Z,23.62
2022-08-27T02:26:35.014Z,23.55
2022-08-27T02:27:37.812Z,23.57
2022-08-27T02:28:40.590Z,23.55
2022-08-27T02:29:43.382Z,23.55
2022-08-27T02:30:45.743Z,23.52
2022-08-27T02:31:48.646Z,23.51
2022-08-27T02:32:51.887Z,23.52
2022-08-27T02:33:54.668Z,23.5
2022-08-27T02:34:57.457Z,23.51
2022-08-27T02:36:00.218Z,23.48
2022-08-27T02:37:02.994Z,23.49
2022-08-27T02:38:05.764Z,23.47
2022-08-27T02:39:08.520Z,23.48
2022-08-27T02:40:11.352Z,23.48
2022-08-27T02:41:14.465Z,23.51
2022-08-27T02:42:17.299Z,23.53
2022-08-27T02:43:23.609Z,23.53
2022-08-27T02:44:20.551Z,23.56
2022-08-27T02:45:23.322Z,23.57
2022-08-27T02:46:26.156Z,23.55
2022-08-27T02:47:29.572Z,23.6
2022-08-27T02:48:32.399Z,23.6
2022-08-27T02:49:35.194Z,23.6
2022-08-27T02:50:37.967Z,23.61
2022-08-27T02:51:40.797Z,23.6
2022-08-27T02:52:43.591Z,23.6
2022-08-27T02:53:45.892Z,23.63
2022-08-27T02:54:48.698Z,23.63
2022-08-27T02:55:51.493Z,23.64
2022-08-27T02:56:54.271Z,23.66
2022-08-27T02:57:57.041Z,23.67
2022-08-27T02:58:59.823Z,23.68
2022-08-27T03:00:02.584Z,23.67
2022-08-27T03:01:05.364Z,23.67
2022-08-27T03:02:06.347Z,23.67
2022-08-27T03:03:06.326Z,23.69
2022-08-27T03:04:09.100Z,23.7
2022-08-27T03:05:11.876Z,23.71
2022-08-27T03:06:14.659Z,23.74
2022-08-27T03:07:18.624Z,23.76
2022-08-27T03:08:18.437Z,23.79
2022-08-27T03:09:21.225Z,23.83
2022-08-27T03:10:23.998Z,23.83
2022-08-27T03:11:26.791Z,23.85
2022-08-27T03:12:29.562Z,23.87
2022-08-27T03:13:32.320Z,23.87
2022-08-27T03:14:35.171Z,23.86
2022-08-27T03:15:38.104Z,23.88
2022-08-27T03:16:41.328Z,23.88
2022-08-27T03:17:44.112Z,23.87
2022-08-27T03:18:46.914Z,23.87
2022-08-27T03:19:49.705Z,23.87
2022-08-27T03:20:52.568Z,23.89
2022-08-27T03:21:55.332Z,23.91
2022-08-27T03:22:58.083Z,23.92
2022-08-27T03:24:00.876Z,23.76
2022-08-27T03:25:03.738Z,23.65
2022-08-27T03:26:06.497Z,23.56
2022-08-27T03:27:09.268Z,23.5
2022-08-27T03:28:13.483Z,23.4
2022-08-27T03:29:13.870Z,23.31
2022-08-27T03:30:16.635Z,23.3
2022-08-27T03:31:19.475Z,23.3
2022-08-27T03:32:22.713Z,23.27
2022-08-27T03:33:25.484Z,23.26
2022-08-27T03:34:28.250Z,23.2
2022-08-27T03:35:31.030Z,23.18
2022-08-27T03:36:33.711Z,23.16
2022-08-27T03:37:36.522Z,23.14
2022-08-27T03:38:39.326Z,23.12
2022-08-27T03:39:42.216Z,23.09
2022-08-27T03:40:45.031Z,23.03
2022-08-27T03:41:54.383Z,23.01
2022-08-27T03:42:49.801Z,23.01
2022-08-27T03:43:52.568Z,23.01
2022-08-27T03:44:55.416Z,22.97
2022-08-27T03:46:01.133Z,22.94
2022-08-27T03:46:58.445Z,22.9
2022-08-27T03:48:01.220Z,22.84
2022-08-27T03:49:03.989Z,22.81
2022-08-27T03:50:07.135Z,22.82
2022-08-27T03:51:09.937Z,22.81
2022-08-27T03:52:12.727Z,22.79
2022-08-27T03:53:15.518Z,22.8
2022-08-27T03:54:18.332Z,22.81
2022-08-27T03:55:21.082Z,22.75
2022-08-27T03:56:23.848Z,22.8
2022-08-27T03:57:26.671Z,22.83
2022-08-27T03:58:29.419Z,22.83
2022-08-27T03:59:32.191Z,22.84
2022-08-27T04:00:34.945Z,22.92
2022-08-27T04:01:37.798Z,23
2022-08-27T04:02:41.271Z,23.05
2022-08-27T04:03:41.266Z,23.11
2022-08-27T04:04:44.036Z,23.19
2022-08-27T04:05:46.900Z,23.23
2022-08-27T04:06:49.669Z,23.26
2022-08-27T04:07:52.472Z,23.27
2022-08-27T04:08:55.232Z,23.2
2022-08-27T04:09:58.024Z,23.19
2022-08-27T04:11:00.780Z,23.17
2022-08-27T04:12:03.554Z,23.17
2022-08-27T04:13:06.351Z,23.11
2022-08-27T04:14:19.810Z,23.06
2022-08-27T04:15:09.651Z,23.03
2022-08-27T04:16:12.514Z,22.98
2022-08-27T04:17:15.676Z,22.98
2022-08-27T04:18:18.444Z,23.03
2022-08-27T04:19:25.183Z,23.1
2022-08-27T04:20:34.847Z,23.07
2022-08-27T04:21:25.442Z,23.1
2022-08-27T04:22:28.219Z,23.12
2022-08-27T04:23:31.007Z,23.12
2022-08-27T04:24:33.799Z,23.08
2022-08-27T04:25:36.599Z,23.03
2022-08-27T04:26:39.479Z,22.95
2022-08-27T04:27:39.439Z,22.98
2022-08-27T04:28:48.897Z,23.02
2022-08-27T04:29:42.518Z,23.02
2022-08-27T04:30:45.915Z,22.99
2022-08-27T04:31:46.944Z,22.99
2022-08-27T04:32:47.265Z,22.96
2022-08-27T04:33:52.975Z,22.99
2022-08-27T04:34:52.664Z,22.89
2022-08-27T04:35:52.808Z,22.89
2022-08-27T04:36:54.767Z,22.81
2022-08-27T04:37:56.962Z,22.76
2022-08-27T04:38:56.951Z,22.76
2022-08-27T04:39:59.252Z,22.69
2022-08-27T04:41:06.754Z,22.71
2022-08-27T04:41:59.531Z,22.74
2022-08-27T04:43:03.087Z,22.71
2022-08-27T04:44:02.999Z,22.77
2022-08-27T04:45:06.198Z,22.74
2022-08-27T04:46:10.258Z,22.65
2022-08-27T04:47:07.094Z,22.71
2022-08-27T04:48:07.130Z,22.76
2022-08-27T04:49:10.167Z,22.8
2022-08-27T04:50:10.511Z,22.77
2022-08-27T04:51:13.076Z,22.78
2022-08-27T04:52:11.221Z,22.73
2022-08-27T04:53:14.429Z,22.76
2022-08-27T04:54:17.886Z,22.78
2022-08-27T04:55:19.089Z,22.82
2022-08-27T04:56:19.462Z,22.83
2022-08-27T04:57:22.560Z,22.83
2022-08-27T04:58:25.424Z,22.85
2022-08-27T04:59:28.661Z,22.88
2022-08-27T05:00:32.453Z,22.82
2022-08-27T05:01:32.578Z,22.82
2022-08-27T05:02:35.755Z,22.82
2022-08-27T05:03:39.099Z,22.86
2022-08-27T05:04:42.011Z,22.83
2022-08-27T05:05:41.587Z,22.89
2022-08-27T05:06:44.068Z,22.92
2022-08-27T05:07:45.144Z,22.86
2022-08-27T05:08:49.102Z,22.87
2022-08-27T05:09:47.979Z,22.89
2022-08-27T05:10:49.811Z,22.87
2022-08-27T05:11:49.923Z,22.86
2022-08-27T05:12:53.512Z,22.87
2022-08-27T05:13:57.636Z,22.86
2022-08-27T05:14:57.943Z,22.85
2022-08-27T05:16:01.427Z,22.86
2022-08-27T05:17:02.555Z,22.82
2022-08-27T05:18:02.364Z,22.82
2022-08-27T05:19:03.176Z,22.81
2022-08-27T05:20:03.478Z,22.83
2022-08-27T05:21:04.073Z,22.82
2022-08-27T05:22:05.090Z,22.84
2022-08-27T05:23:08.664Z,22.84
2022-08-27T05:24:09.299Z,22.79
2022-08-27T05:25:09.404Z,22.8
2022-08-27T05:26:10.008Z,22.86
2022-08-27T08:27:52.554Z,24.37
2022-08-27T08:28:55.370Z,24.49
2022-08-27T08:29:58.195Z,24.5
2022-08-27T08:31:01.080Z,24.47
2022-08-27T08:32:02.333Z,24.51
2022-08-27T08:33:05.206Z,24.45
2022-08-27T08:34:08.133Z,24.34
2022-08-27T08:35:11.014Z,24.33
2022-08-27T08:36:14.042Z,24.14
2022-08-27T08:37:16.968Z,24.04
2022-08-27T08:38:19.847Z,24
2022-08-27T08:39:22.743Z,23.91
2022-08-27T08:40:25.736Z,23.83
2022-08-27T08:41:23.411Z,23.73
2022-08-27T08:42:26.433Z,23.55
2022-08-27T08:43:29.221Z,23.51
2022-08-27T08:44:32.134Z,23.53
2022-08-27T08:45:34.944Z,23.53
2022-08-27T08:46:37.745Z,23.49
2022-08-27T08:47:40.628Z,23.4
2022-08-27T08:48:43.526Z,23.4
2022-08-27T08:49:46.375Z,23.37
2022-08-27T08:50:46.791Z,23.35
2022-08-27T08:51:49.636Z,23.31
2022-08-27T08:52:52.497Z,23.29
2022-08-27T08:53:55.309Z,23.27
2022-08-27T08:54:58.582Z,23.26
2022-08-27T08:56:01.413Z,23.23
2022-08-27T08:57:04.209Z,23.21
2022-08-27T08:58:07.098Z,23.22
2022-08-27T08:59:10.147Z,23.25
2022-08-27T09:00:13.009Z,23.25
2022-08-27T09:01:19.362Z,23.22
2022-08-27T09:02:19.200Z,23.11
2022-08-27T09:03:22.056Z,23.1
2022-08-27T09:04:25.167Z,23.15
2022-08-27T09:05:28.059Z,23.11
2022-08-27T09:06:30.997Z,23.03
2022-08-27T09:07:33.829Z,23.04
2022-08-27T09:08:40.614Z,22.98
2022-08-27T09:09:38.903Z,22.96
2022-08-27T09:10:41.705Z,22.91
2022-08-27T09:11:44.544Z,22.92
2022-08-27T09:12:47.346Z,22.96
2022-08-27T09:13:50.189Z,22.98
2022-08-27T09:14:53.008Z,22.99
2022-08-27T09:15:53.398Z,23.04
2022-08-27T09:16:56.748Z,23.08
2022-08-27T09:17:57.296Z,23.13
2022-08-27T09:19:00.563Z,23.21
2022-08-27T09:20:03.384Z,23.23
2022-08-27T09:21:08.970Z,23.18
2022-08-27T09:22:09.532Z,23.19
2022-08-27T09:23:12.413Z,23.16
2022-08-27T09:24:15.259Z,23.09
2022-08-27T09:25:20.759Z,22.97
2022-08-27T09:26:21.018Z,23.01
2022-08-27T09:27:23.840Z,23.03
2022-08-27T09:28:26.666Z,22.99
2022-08-27T09:29:29.463Z,22.91
2022-08-27T09:30:32.351Z,22.84
2022-08-27T09:31:35.670Z,22.87
2022-08-27T09:32:38.481Z,22.84
2022-08-27T09:33:54.988Z,22.86
2022-08-27T09:34:42.910Z,22.86
2022-08-27T09:35:45.725Z,22.93
2022-08-27T09:36:48.518Z,22.89
2022-08-27T09:37:51.377Z,22.92
2022-08-27T09:38:54.521Z,22.95
2022-08-27T09:39:54.609Z,23
2022-08-27T09:40:57.565Z,23
2022-08-27T09:42:00.387Z,22.96
2022-08-27T09:43:03.180Z,22.94
2022-08-27T09:44:06.013Z,22.96
2022-08-27T09:45:08.886Z,22.98
2022-08-27T09:46:11.668Z,23.02
2022-08-27T09:47:14.908Z,23.04
2022-08-27T09:48:17.730Z,23.03
2022-08-27T09:49:20.536Z,23.05
2022-08-27T09:50:23.337Z,23.09
2022-08-27T09:51:26.281Z,23.14
2022-08-27T09:52:29.066Z,23.12
2022-08-27T09:53:31.858Z,23.17
2022-08-27T09:54:34.679Z,23.22
2022-08-27T09:55:37.493Z,23.29
2022-08-27T09:56:40.174Z,23.34
2022-08-27T09:57:42.953Z,23.41
2022-08-27T09:58:45.758Z,23.41
2022-08-27T09:59:48.582Z,23.42
2022-08-27T10:00:51.454Z,23.47
2022-08-27T10:01:54.834Z,23.4
2022-08-27T10:02:57.676Z,23.44
2022-08-27T10:04:00.526Z,23.53
2022-08-27T10:05:03.574Z,23.52
2022-08-27T10:06:06.406Z,23.51
2022-08-27T10:07:09.244Z,23.46
2022-08-27T10:08:12.479Z,23.44
2022-08-27T10:09:15.478Z,23.39
2022-08-27T10:10:18.271Z,23.33
2022-08-27T10:11:23.297Z,23.28
2022-08-27T10:12:22.655Z,23.24
2022-08-27T10:13:25.490Z,23.19
2022-08-27T10:14:28.288Z,23.17
2022-08-27T10:15:33.151Z,23.17
2022-08-27T10:16:31.193Z,23.1
2022-08-27T10:17:34.476Z,23.01
2022-08-27T10:18:37.328Z,22.97
2022-08-27T10:19:40.385Z,22.99
2022-08-27T10:20:43.203Z,22.94
2022-08-27T10:21:46.009Z,22.92
2022-08-27T10:22:48.834Z,22.89
2022-08-27T10:23:51.661Z,22.85
2022-08-27T10:24:54.466Z,22.87
2022-08-27T10:25:57.267Z,22.84
2022-08-27T10:27:00.070Z,22.81
2022-08-27T10:28:02.882Z,22.85
2022-08-27T10:29:05.728Z,22.88
2022-08-27T10:30:08.741Z,22.89
2022-08-27T10:31:08.543Z,22.96
2022-08-27T10:32:11.363Z,22.97
2022-08-27T10:33:12.769Z,22.94
2022-08-27T10:34:16.153Z,22.98
2022-08-27T10:35:16.359Z,23.03
2022-08-27T10:36:19.831Z,23.06
2022-08-27T10:37:22.645Z,23.09
2022-08-27T10:38:22.734Z,23.1
2022-08-27T10:39:25.577Z,23.08
2022-08-27T10:40:28.473Z,23.08
2022-08-27T10:41:31.551Z,23.13
2022-08-27T10:42:34.370Z,23.1
2022-08-27T10:43:37.188Z,23.07
2022-08-27T10:44:40.133Z,23.14
2022-08-27T10:45:43.093Z,23.17
2022-08-27T10:46:46.835Z,23.18
2022-08-27T10:47:46.760Z,23.19
2022-08-27T10:48:49.583Z,23.2
2022-08-27T10:49:52.380Z,23.19
2022-08-27T10:50:55.180Z,23.19
2022-08-27T10:51:57.977Z,23.26
2022-08-27T10:53:00.802Z,23.2
2022-08-27T10:54:03.628Z,23.24
2022-08-27T10:55:06.911Z,23.25
2022-08-27T10:56:06.666Z,23.22
2022-08-27T10:57:28.849Z,23.12
2022-08-27T10:58:13.098Z,23.16
2022-08-27T10:59:13.490Z,23.19
2022-08-27T11:00:16.303Z,23.18
2022-08-27T11:01:19.238Z,23.2
2022-08-27T11:02:19.422Z,23.13
2022-08-27T11:03:22.584Z,23.12
2022-08-27T11:04:25.800Z,23.06
2022-08-27T11:05:28.723Z,23.07
2022-08-27T11:06:31.515Z,23.07
2022-08-27T11:07:34.329Z,23.1
2022-08-27T11:08:37.131Z,23.1
2022-08-27T11:09:39.992Z,23.17
2022-08-27T11:10:42.923Z,23.25
2022-08-27T11:12:15.201Z,23.29
2022-08-27T11:12:47.419Z,23.29
2022-08-27T11:13:50.257Z,23.3
2022-08-27T11:14:53.057Z,23.32
2022-08-27T11:15:55.858Z,23.35
2022-08-27T11:16:58.738Z,23.37
2022-08-27T11:18:02.113Z,23.4
2022-08-27T11:19:04.947Z,23.4
2022-08-27T11:20:07.850Z,23.38
2022-08-27T11:21:10.847Z,23.39
2022-08-27T11:22:14.855Z,23.43
2022-08-27T11:23:15.696Z,23.44
2022-08-27T11:24:18.507Z,23.46
2022-08-27T11:25:21.295Z,23.44
2022-08-27T11:26:24.110Z,23.44
2022-08-27T11:27:26.934Z,23.43
2022-08-27T11:28:30.369Z,23.37
2022-08-27T11:29:30.531Z,23.31
2022-08-27T11:30:30.811Z,23.28
2022-08-27T11:31:33.690Z,23.19
2022-08-27T11:32:36.824Z,23.19
2022-08-27T11:33:42.779Z,23.1
2022-08-27T11:34:42.207Z,23.16
2022-08-27T11:35:45.059Z,23.15
2022-08-27T11:36:53.281Z,23.17
2022-08-27T11:37:50.631Z,23.16
2022-08-27T11:38:53.435Z,23.18
2022-08-27T11:39:56.269Z,23.19
2022-08-27T11:40:59.448Z,23.19
2022-08-27T11:42:02.510Z,23.22
2022-08-27T11:43:05.591Z,23.27
2022-08-27T11:44:08.481Z,23.24
2022-08-27T11:45:09.451Z,23.23
2022-08-27T11:46:12.258Z,23.16
2022-08-27T11:47:15.102Z,23.15
2022-08-27T11:48:17.892Z,23.18
2022-08-27T11:49:20.715Z,23.18
2022-08-27T11:50:23.512Z,23.21
2022-08-27T11:51:26.309Z,23.26
2022-08-27T11:52:29.538Z,23.27
2022-08-27T11:53:32.463Z,23.23
2022-08-27T11:54:35.259Z,23.24
2022-08-27T11:55:40.798Z,23.26
2022-08-27T11:56:40.114Z,23.25
2022-08-27T11:57:42.950Z,23.25
2022-08-27T11:58:52.320Z,23.3
2022-08-27T11:59:46.152Z,23.3
2022-08-27T12:00:48.953Z,23.32
2022-08-27T12:01:51.756Z,23.33
2022-08-27T12:02:54.592Z,23.32
2022-08-27T12:03:57.845Z,23.32
2022-08-27T12:05:00.801Z,23.36
2022-08-27T12:06:03.621Z,23.4
2022-08-27T12:07:06.431Z,23.43
2022-08-27T12:08:09.401Z,23.46
2022-08-27T12:09:12.603Z,23.44
2022-08-27T12:10:15.464Z,23.48
2022-08-27T12:11:18.312Z,23.52
2022-08-27T12:12:19.099Z,23.55
2022-08-27T12:13:21.910Z,23.59
2022-08-27T12:14:24.720Z,23.56
2022-08-27T12:15:31.010Z,23.54
2022-08-27T12:16:30.532Z,23.57
2022-08-27T12:17:33.982Z,23.56
2022-08-27T12:18:36.819Z,23.57
2022-08-27T12:19:39.627Z,23.61
2022-08-27T12:20:42.447Z,23.63
2022-08-27T12:21:45.254Z,23.65
2022-08-27T12:22:48.030Z,23.71
2022-08-27T12:23:50.814Z,23.83
2022-08-27T12:24:55.419Z,23.93
2022-08-27T12:25:56.160Z,24
2022-08-27T12:26:56.878Z,24.04
2022-08-27T12:27:59.688Z,24.12
2022-08-27T12:29:02.513Z,24.22
2022-08-27T12:30:05.307Z,24.32
2022-08-27T12:31:08.209Z,24.39
2022-08-27T12:32:11.450Z,24.48
2022-08-27T12:33:14.311Z,24.54
2022-08-27T12:34:17.163Z,24.56
2022-08-27T12:35:20.224Z,24.57
2022-08-27T12:36:27.833Z,24.54
2022-08-27T12:37:24.540Z,24.57
2022-08-27T12:38:24.648Z,24.61
2022-08-27T12:39:27.695Z,24.63
2022-08-27T12:40:28.362Z,24.62
2022-08-27T12:41:31.707Z,24.61
2022-08-27T12:42:34.695Z,24.62
2022-08-27T12:43:37.512Z,24.61
2022-08-27T12:44:40.321Z,24.6
2022-08-27T12:45:43.126Z,24.57
2022-08-27T12:46:46.086Z,24.57
2022-08-27T12:47:50.766Z,24.56
2022-08-27T12:48:47.073Z,24.53
2022-08-27T12:49:53.893Z,24.51
2022-08-27T12:50:52.007Z,24.5
2022-08-27T12:51:52.843Z,24.52
2022-08-27T12:52:55.677Z,24.51
2022-08-27T12:53:58.551Z,24.53
2022-08-27T12:55:01.575Z,24.56
2022-08-27T12:56:04.590Z,24.62
2022-08-27T12:57:07.454Z,24.7
2022-08-27T12:58:13.505Z,24.73
2022-08-27T12:59:12.868Z,24.75
2022-08-27T13:00:15.700Z,24.78
2022-08-27T13:01:18.587Z,24.74
2022-08-27T13:02:21.995Z,24.66
2022-08-27T13:03:24.843Z,24.63
2022-08-27T13:04:27.712Z,24.58
2022-08-27T13:05:31.057Z,24.49
2022-08-27T13:06:33.914Z,24.39
2022-08-27T13:07:38.186Z,24.38
2022-08-27T13:08:37.789Z,24.29
2022-08-27T13:09:40.820Z,24.21
2022-08-27T13:10:43.630Z,24.12
2022-08-27T13:11:46.423Z,24.07
2022-08-27T13:12:49.265Z,24.05
2022-08-27T13:13:52.068Z,23.99
2022-08-27T13:14:55.996Z,23.97
2022-08-27T13:15:56.702Z,23.95
2022-08-27T13:16:59.822Z,23.95
2022-08-27T13:18:03.082Z,23.97
2022-08-27T13:19:02.687Z,23.92
2022-08-27T13:20:05.527Z,23.98
2022-08-27T13:21:08.390Z,24
2022-08-27T13:22:11.186Z,24.03
2022-08-27T13:23:17.240Z,24.02
2022-08-27T13:24:16.529Z,24.02
2022-08-27T13:25:19.391Z,23.98
2022-08-27T13:26:22.178Z,23.95
2022-08-27T13:27:24.962Z,23.92
2022-08-27T13:28:26.561Z,23.88
2022-08-27T13:29:29.364Z,23.88
2022-08-27T13:30:35.462Z,23.86
2022-08-27T13:31:32.585Z,23.86
2022-08-27T13:32:35.832Z,23.86
2022-08-27T13:33:38.629Z,23.86
2022-08-27T13:34:41.476Z,23.9
2022-08-27T13:35:44.421Z,23.91
2022-08-27T13:36:47.374Z,23.91
2022-08-27T13:37:50.168Z,23.91
2022-08-27T13:38:53.020Z,23.96
2022-08-27T13:39:55.866Z,24
2022-08-27T13:40:59.108Z,24.05
2022-08-27T13:42:01.929Z,24.08
2022-08-27T13:43:04.817Z,24.11
2022-08-27T13:44:04.968Z,24.16
2022-08-27T13:45:07.827Z,24.25
2022-08-27T13:46:11.233Z,24.31
2022-08-27T13:47:12.411Z,24.36
2022-08-27T13:48:15.251Z,24.43
2022-08-27T13:49:18.129Z,24.51
2022-08-27T13:50:21.093Z,24.55
2022-08-27T13:51:23.957Z,24.61
2022-08-27T13:52:27.127Z,24.6
2022-08-27T13:53:29.941Z,24.52
2022-08-27T13:54:32.776Z,24.51
2022-08-27T13:55:35.624Z,24.46
2022-08-27T13:56:38.457Z,24.45
2022-08-27T13:57:41.333Z,24.41
2022-08-27T13:58:44.149Z,24.35
2022-08-27T13:59:46.997Z,24.35
2022-08-27T14:00:49.809Z,24.33
2022-08-27T14:01:51.444Z,24.33
2022-08-27T14:02:54.217Z,24.33
2022-08-27T14:03:52.649Z,24.29
2022-08-27T14:04:55.483Z,24.25
2022-08-27T14:05:58.315Z,24.27
2022-08-27T14:07:01.188Z,24.28
2022-08-27T14:08:04.089Z,24.29
2022-08-27T14:09:07.105Z,24.33
2022-08-27T14:10:09.984Z,24.34
2022-08-27T14:11:12.833Z,24.39
2022-08-27T14:12:15.739Z,24.41
2022-08-27T14:13:18.772Z,24.47
2022-08-27T14:14:21.590Z,24.47
2022-08-27T14:15:24.442Z,24.5
2022-08-27T14:16:27.272Z,24.49
2022-08-27T14:17:30.506Z,24.47
2022-08-27T14:18:55.356Z,24.45
2022-08-27T14:19:36.572Z,24.44
2022-08-27T14:20:36.502Z,24.47
2022-08-27T14:21:39.351Z,24.48
2022-08-27T14:22:42.173Z,24.5
2022-08-27T14:23:45.047Z,24.55
2022-08-27T14:24:48.164Z,24.56
2022-08-27T14:25:50.997Z,24.61
2022-08-27T14:26:53.863Z,24.63
2022-08-27T14:27:56.747Z,24.6
2022-08-27T14:28:59.570Z,24.6
2022-08-27T14:30:02.430Z,24.68
2022-08-27T14:31:05.769Z,24.69
2022-08-27T14:32:09.070Z,24.74
2022-08-27T14:33:11.870Z,24.76
2022-08-27T14:34:14.670Z,24.79
2022-08-27T14:35:18.708Z,24.79
2022-08-27T14:36:17.877Z,24.82
2022-08-27T14:37:20.709Z,24.84
2022-08-27T14:38:23.586Z,24.91
2022-08-27T14:39:27.150Z,24.99
2022-08-27T14:40:28.906Z,25.02
2022-08-27T14:42:33.738Z,25.04
2022-08-27T14:43:34.678Z,25.07
2022-08-27T14:44:35.662Z,25.12
2022-08-27T14:45:39.194Z,25.15
2022-08-27T14:46:41.325Z,25.12
2022-08-27T14:47:46.125Z,25.11
2022-08-27T14:49:23.300Z,25.14
2022-08-27T14:49:47.100Z,25.18
2022-08-27T14:50:45.298Z,25.19
2022-08-27T14:51:47.371Z,25.22
2022-08-27T14:52:53.989Z,25.23
2022-08-27T14:53:51.915Z,25.3
2022-08-27T14:55:02.796Z,25.36
2022-08-27T14:55:57.767Z,25.32
2022-08-27T14:56:59.587Z,25.29
2022-08-27T14:57:56.216Z,25.31
2022-08-27T14:58:56.558Z,25.38
2022-08-27T15:00:04.561Z,25.44
2022-08-27T15:02:33.342Z,25.56
2022-08-27T15:02:41.975Z,25.64
2022-08-27T15:03:39.259Z,25.67
2022-08-27T15:04:40.034Z,25.73
2022-08-27T15:05:43.025Z,25.78
2022-08-27T15:06:50.829Z,25.84
2022-08-27T15:07:48.054Z,25.86
2022-08-27T15:08:50.842Z,25.9
